sensor_id;sensor_type;location;lat;lon;timestamp;P1;durP1;ratioP1;P2;durP2;ratioP2
6842;SDS011;3460;52.028;8.916;2024-03-02T00:00:51;9.57;;;6.20;;
6842;SDS011;3460;52.028;8.916;2024-03-02T00:03:18;7.93;;;6.53;;
6842;SDS011;3460;52.028;8.916;2024-03-02T00:05:50;7.87;;;6.37;;
6842;SDS011;3460;52.028;8.916;2024-03-02T00:08:20;9.63;;;6.70;;
6842;SDS011;3460;52.028;8.916;2024-03-02T00:10:50;10.70;;;6.83;;
6842;SDS011;3460;52.028;8.916;2024-03-02T00:13:18;9.87;;;6.80;;
6842;SDS011;3460;52.028;8.916;2024-03-02T00:15:48;8.17;;;6.33;;
6842;SDS011;3460;52.028;8.916;2024-03-02T00:18:18;11.37;;;6.97;;
6842;SDS011;3460;52.028;8.916;2024-03-02T00:20:47;9.10;;;6.60;;
6842;SDS011;3460;52.028;8.916;2024-03-02T00:23:15;9.23;;;6.80;;
6842;SDS011;3460;52.028;8.916;2024-03-02T00:25:45;9.40;;;6.93;;
6842;SDS011;3460;52.028;8.916;2024-03-02T00:28:17;10.97;;;7.73;;
6842;SDS011;3460;52.028;8.916;2024-03-02T00:30:54;11.87;;;6.67;;
6842;SDS011;3460;52.028;8.916;2024-03-02T00:33:22;10.33;;;6.90;;
6842;SDS011;3460;52.028;8.916;2024-03-02T00:35:50;9.67;;;6.70;;
6842;SDS011;3460;52.028;8.916;2024-03-02T00:38:18;7.70;;;6.27;;
6842;SDS011;3460;52.028;8.916;2024-03-02T00:40:45;9.03;;;7.17;;
6842;SDS011;3460;52.028;8.916;2024-03-02T00:43:20;9.47;;;7.03;;
6842;SDS011;3460;52.028;8.916;2024-03-02T00:46:07;10.47;;;7.70;;
6842;SDS011;3460;52.028;8.916;2024-03-02T00:48:34;8.93;;;6.90;;
6842;SDS011;3460;52.028;8.916;2024-03-02T00:51:02;10.37;;;7.57;;
6842;SDS011;3460;52.028;8.916;2024-03-02T00:53:31;10.10;;;7.43;;
6842;SDS011;3460;52.028;8.916;2024-03-02T00:55:58;9.77;;;6.90;;
6842;SDS011;3460;52.028;8.916;2024-03-02T00:58:26;9.17;;;6.97;;
6842;SDS011;3460;52.028;8.916;2024-03-02T01:00:53;9.17;;;7.30;;
6842;SDS011;3460;52.028;8.916;2024-03-02T01:03:20;10.07;;;6.97;;
6842;SDS011;3460;52.028;8.916;2024-03-02T01:05:47;9.70;;;7.27;;
6842;SDS011;3460;52.028;8.916;2024-03-02T01:08:14;8.83;;;6.63;;
6842;SDS011;3460;52.028;8.916;2024-03-02T01:10:42;9.97;;;7.60;;
6842;SDS011;3460;52.028;8.916;2024-03-02T01:13:09;10.73;;;7.50;;
6842;SDS011;3460;52.028;8.916;2024-03-02T01:15:36;9.27;;;7.30;;
6842;SDS011;3460;52.028;8.916;2024-03-02T01:18:03;11.27;;;6.90;;
6842;SDS011;3460;52.028;8.916;2024-03-02T01:20:30;10.23;;;7.30;;
6842;SDS011;3460;52.028;8.916;2024-03-02T01:22:56;9.80;;;7.03;;
6842;SDS011;3460;52.028;8.916;2024-03-02T01:25:23;9.70;;;7.63;;
6842;SDS011;3460;52.028;8.916;2024-03-02T01:27:51;10.10;;;7.17;;
6842;SDS011;3460;52.028;8.916;2024-03-02T01:30:18;10.43;;;7.30;;
6842;SDS011;3460;52.028;8.916;2024-03-02T01:32:45;10.20;;;7.40;;
6842;SDS011;3460;52.028;8.916;2024-03-02T01:35:11;11.50;;;7.90;;
6842;SDS011;3460;52.028;8.916;2024-03-02T01:37:39;8.87;;;6.97;;
6842;SDS011;3460;52.028;8.916;2024-03-02T01:40:07;11.47;;;7.53;;
6842;SDS011;3460;52.028;8.916;2024-03-02T01:42:35;9.03;;;6.93;;
6842;SDS011;3460;52.028;8.916;2024-03-02T01:45:04;9.60;;;7.30;;
6842;SDS011;3460;52.028;8.916;2024-03-02T01:47:32;14.67;;;7.90;;
6842;SDS011;3460;52.028;8.916;2024-03-02T01:49:59;12.30;;;8.40;;
6842;SDS011;3460;52.028;8.916;2024-03-02T01:52:26;9.83;;;7.27;;
6842;SDS011;3460;52.028;8.916;2024-03-02T01:54:54;10.63;;;7.50;;
6842;SDS011;3460;52.028;8.916;2024-03-02T01:57:21;10.67;;;7.63;;
6842;SDS011;3460;52.028;8.916;2024-03-02T01:59:48;10.57;;;7.60;;
6842;SDS011;3460;52.028;8.916;2024-03-02T02:02:17;9.73;;;7.80;;
6842;SDS011;3460;52.028;8.916;2024-03-02T02:04:44;9.77;;;7.37;;
6842;SDS011;3460;52.028;8.916;2024-03-02T02:07:10;12.53;;;7.57;;
6842;SDS011;3460;52.028;8.916;2024-03-02T02:09:39;10.53;;;7.33;;
6842;SDS011;3460;52.028;8.916;2024-03-02T02:12:06;10.43;;;7.90;;
6842;SDS011;3460;52.028;8.916;2024-03-02T02:14:33;9.60;;;7.53;;
6842;SDS011;3460;52.028;8.916;2024-03-02T02:17:00;10.27;;;7.67;;
6842;SDS011;3460;52.028;8.916;2024-03-02T02:19:28;9.90;;;7.70;;
6842;SDS011;3460;52.028;8.916;2024-03-02T02:21:56;9.63;;;6.97;;
6842;SDS011;3460;52.028;8.916;2024-03-02T02:24:23;9.37;;;7.93;;
6842;SDS011;3460;52.028;8.916;2024-03-02T02:26:50;11.60;;;8.27;;
6842;SDS011;3460;52.028;8.916;2024-03-02T02:29:17;9.97;;;7.50;;
6842;SDS011;3460;52.028;8.916;2024-03-02T02:31:43;12.93;;;8.23;;
6842;SDS011;3460;52.028;8.916;2024-03-02T02:34:10;11.03;;;7.13;;
6842;SDS011;3460;52.028;8.916;2024-03-02T02:36:37;11.27;;;7.33;;
6842;SDS011;3460;52.028;8.916;2024-03-02T02:39:07;10.63;;;7.33;;
6842;SDS011;3460;52.028;8.916;2024-03-02T02:41:37;8.60;;;7.10;;
6842;SDS011;3460;52.028;8.916;2024-03-02T02:44:04;10.63;;;7.43;;
6842;SDS011;3460;52.028;8.916;2024-03-02T02:46:30;11.10;;;7.87;;
6842;SDS011;3460;52.028;8.916;2024-03-02T02:48:57;10.07;;;7.50;;
6842;SDS011;3460;52.028;8.916;2024-03-02T02:51:24;10.80;;;7.47;;
6842;SDS011;3460;52.028;8.916;2024-03-02T02:53:51;10.53;;;7.93;;
6842;SDS011;3460;52.028;8.916;2024-03-02T02:56:19;11.50;;;7.73;;
6842;SDS011;3460;52.028;8.916;2024-03-02T02:58:46;11.57;;;6.93;;
6842;SDS011;3460;52.028;8.916;2024-03-02T03:01:13;9.23;;;7.10;;
6842;SDS011;3460;52.028;8.916;2024-03-02T03:03:42;13.07;;;7.97;;
6842;SDS011;3460;52.028;8.916;2024-03-02T03:06:08;11.03;;;7.53;;
6842;SDS011;3460;52.028;8.916;2024-03-02T03:08:35;11.03;;;7.77;;
6842;SDS011;3460;52.028;8.916;2024-03-02T03:11:03;13.23;;;8.13;;
6842;SDS011;3460;52.028;8.916;2024-03-02T03:13:31;11.77;;;8.27;;
6842;SDS011;3460;52.028;8.916;2024-03-02T03:15:58;10.17;;;7.87;;
6842;SDS011;3460;52.028;8.916;2024-03-02T03:18:25;11.43;;;7.43;;
6842;SDS011;3460;52.028;8.916;2024-03-02T03:20:52;12.97;;;8.33;;
6842;SDS011;3460;52.028;8.916;2024-03-02T03:23:19;13.37;;;8.47;;
6842;SDS011;3460;52.028;8.916;2024-03-02T03:25:45;11.50;;;8.23;;
6842;SDS011;3460;52.028;8.916;2024-03-02T03:28:12;12.43;;;8.10;;
6842;SDS011;3460;52.028;8.916;2024-03-02T03:30:40;11.97;;;9.07;;
6842;SDS011;3460;52.028;8.916;2024-03-02T03:33:08;10.53;;;8.17;;
6842;SDS011;3460;52.028;8.916;2024-03-02T03:35:35;12.13;;;8.23;;
6842;SDS011;3460;52.028;8.916;2024-03-02T03:38:03;12.87;;;8.17;;
6842;SDS011;3460;52.028;8.916;2024-03-02T03:40:30;13.13;;;8.40;;
6842;SDS011;3460;52.028;8.916;2024-03-02T03:42:57;13.23;;;8.43;;
6842;SDS011;3460;52.028;8.916;2024-03-02T03:45:25;12.53;;;8.37;;
6842;SDS011;3460;52.028;8.916;2024-03-02T03:47:53;11.47;;;8.27;;
6842;SDS011;3460;52.028;8.916;2024-03-02T03:50:20;11.33;;;8.43;;
6842;SDS011;3460;52.028;8.916;2024-03-02T03:52:47;12.70;;;8.40;;
6842;SDS011;3460;52.028;8.916;2024-03-02T03:55:14;11.93;;;8.27;;
6842;SDS011;3460;52.028;8.916;2024-03-02T03:57:40;14.27;;;8.90;;
6842;SDS011;3460;52.028;8.916;2024-03-02T04:00:07;11.13;;;7.90;;
6842;SDS011;3460;52.028;8.916;2024-03-02T04:02:36;11.17;;;8.10;;
6842;SDS011;3460;52.028;8.916;2024-03-02T04:05:05;13.67;;;9.03;;
6842;SDS011;3460;52.028;8.916;2024-03-02T04:07:34;13.37;;;8.13;;
6842;SDS011;3460;52.028;8.916;2024-03-02T04:10:05;10.47;;;8.00;;
6842;SDS011;3460;52.028;8.916;2024-03-02T04:12:33;12.60;;;8.63;;
6842;SDS011;3460;52.028;8.916;2024-03-02T04:15:01;12.97;;;9.17;;
6842;SDS011;3460;52.028;8.916;2024-03-02T04:17:29;12.20;;;8.87;;
6842;SDS011;3460;52.028;8.916;2024-03-02T04:19:58;12.17;;;8.40;;
6842;SDS011;3460;52.028;8.916;2024-03-02T04:22:26;12.33;;;8.53;;
6842;SDS011;3460;52.028;8.916;2024-03-02T04:24:53;12.30;;;8.77;;
6842;SDS011;3460;52.028;8.916;2024-03-02T04:27:19;12.17;;;8.07;;
6842;SDS011;3460;52.028;8.916;2024-03-02T04:29:46;14.23;;;8.93;;
6842;SDS011;3460;52.028;8.916;2024-03-02T04:32:13;16.60;;;9.57;;
6842;SDS011;3460;52.028;8.916;2024-03-02T04:34:40;12.43;;;8.40;;
6842;SDS011;3460;52.028;8.916;2024-03-02T04:37:07;13.23;;;8.93;;
6842;SDS011;3460;52.028;8.916;2024-03-02T04:39:36;13.57;;;9.10;;
6842;SDS011;3460;52.028;8.916;2024-03-02T04:42:02;13.03;;;9.53;;
6842;SDS011;3460;52.028;8.916;2024-03-02T04:44:29;12.07;;;8.60;;
6842;SDS011;3460;52.028;8.916;2024-03-02T04:46:56;14.30;;;9.13;;
6842;SDS011;3460;52.028;8.916;2024-03-02T04:49:23;16.87;;;9.80;;
6842;SDS011;3460;52.028;8.916;2024-03-02T04:51:50;14.50;;;10.00;;
6842;SDS011;3460;52.028;8.916;2024-03-02T04:54:17;15.23;;;10.90;;
6842;SDS011;3460;52.028;8.916;2024-03-02T04:56:45;14.27;;;9.10;;
6842;SDS011;3460;52.028;8.916;2024-03-02T04:59:15;15.57;;;9.87;;
6842;SDS011;3460;52.028;8.916;2024-03-02T05:01:42;14.47;;;9.10;;
6842;SDS011;3460;52.028;8.916;2024-03-02T05:04:09;17.40;;;10.33;;
6842;SDS011;3460;52.028;8.916;2024-03-02T05:06:37;17.33;;;10.23;;
6842;SDS011;3460;52.028;8.916;2024-03-02T05:09:05;15.83;;;10.97;;
6842;SDS011;3460;52.028;8.916;2024-03-02T05:11:32;17.00;;;10.40;;
6842;SDS011;3460;52.028;8.916;2024-03-02T05:14:22;17.50;;;11.00;;
6842;SDS011;3460;52.028;8.916;2024-03-02T05:16:49;16.40;;;9.87;;
6842;SDS011;3460;52.028;8.916;2024-03-02T05:19:16;17.33;;;10.50;;
6842;SDS011;3460;52.028;8.916;2024-03-02T05:21:43;17.60;;;11.00;;
6842;SDS011;3460;52.028;8.916;2024-03-02T05:24:10;17.03;;;10.53;;
6842;SDS011;3460;52.028;8.916;2024-03-02T05:26:37;16.43;;;10.87;;
6842;SDS011;3460;52.028;8.916;2024-03-02T05:29:04;17.77;;;10.63;;
6842;SDS011;3460;52.028;8.916;2024-03-02T05:31:32;19.03;;;11.13;;
6842;SDS011;3460;52.028;8.916;2024-03-02T05:33:58;16.23;;;10.33;;
6842;SDS011;3460;52.028;8.916;2024-03-02T05:36:25;16.50;;;10.87;;
6842;SDS011;3460;52.028;8.916;2024-03-02T05:38:52;18.60;;;11.27;;
6842;SDS011;3460;52.028;8.916;2024-03-02T05:41:19;19.77;;;11.60;;
6842;SDS011;3460;52.028;8.916;2024-03-02T05:43:46;19.70;;;13.07;;
6842;SDS011;3460;52.028;8.916;2024-03-02T05:46:12;18.60;;;11.77;;
6842;SDS011;3460;52.028;8.916;2024-03-02T05:48:40;19.40;;;12.23;;
6842;SDS011;3460;52.028;8.916;2024-03-02T05:51:07;17.87;;;11.70;;
6842;SDS011;3460;52.028;8.916;2024-03-02T05:53:34;23.73;;;11.53;;
6842;SDS011;3460;52.028;8.916;2024-03-02T05:56:03;17.77;;;12.50;;
6842;SDS011;3460;52.028;8.916;2024-03-02T05:58:30;19.57;;;12.53;;
6842;SDS011;3460;52.028;8.916;2024-03-02T06:01:13;20.93;;;12.53;;
6842;SDS011;3460;52.028;8.916;2024-03-02T06:03:41;19.83;;;12.40;;
6842;SDS011;3460;52.028;8.916;2024-03-02T06:06:08;19.63;;;12.70;;
6842;SDS011;3460;52.028;8.916;2024-03-02T06:08:35;22.03;;;13.03;;
6842;SDS011;3460;52.028;8.916;2024-03-02T06:11:01;22.67;;;13.27;;
6842;SDS011;3460;52.028;8.916;2024-03-02T06:13:28;21.03;;;13.23;;
6842;SDS011;3460;52.028;8.916;2024-03-02T06:15:55;22.27;;;13.70;;
6842;SDS011;3460;52.028;8.916;2024-03-02T06:18:22;20.27;;;13.30;;
6842;SDS011;3460;52.028;8.916;2024-03-02T06:20:50;21.27;;;13.30;;
6842;SDS011;3460;52.028;8.916;2024-03-02T06:23:17;24.57;;;14.53;;
6842;SDS011;3460;52.028;8.916;2024-03-02T06:25:44;23.50;;;13.73;;
6842;SDS011;3460;52.028;8.916;2024-03-02T06:28:10;19.77;;;13.30;;
6842;SDS011;3460;52.028;8.916;2024-03-02T06:30:40;23.37;;;13.47;;
6842;SDS011;3460;52.028;8.916;2024-03-02T06:33:07;20.37;;;13.63;;
6842;SDS011;3460;52.028;8.916;2024-03-02T06:35:34;24.30;;;14.80;;
6842;SDS011;3460;52.028;8.916;2024-03-02T06:38:02;23.17;;;14.07;;
6842;SDS011;3460;52.028;8.916;2024-03-02T06:40:29;25.13;;;13.97;;
6842;SDS011;3460;52.028;8.916;2024-03-02T06:42:56;23.57;;;14.67;;
6842;SDS011;3460;52.028;8.916;2024-03-02T06:45:23;24.03;;;15.10;;
6842;SDS011;3460;52.028;8.916;2024-03-02T06:47:50;23.23;;;14.23;;
6842;SDS011;3460;52.028;8.916;2024-03-02T06:50:17;23.87;;;13.90;;
6842;SDS011;3460;52.028;8.916;2024-03-02T06:52:43;23.63;;;14.63;;
6842;SDS011;3460;52.028;8.916;2024-03-02T06:55:12;23.73;;;14.47;;
6842;SDS011;3460;52.028;8.916;2024-03-02T06:57:38;25.07;;;14.50;;
6842;SDS011;3460;52.028;8.916;2024-03-02T07:00:06;23.83;;;14.03;;
6842;SDS011;3460;52.028;8.916;2024-03-02T07:02:34;29.27;;;15.20;;
6842;SDS011;3460;52.028;8.916;2024-03-02T07:05:01;24.30;;;14.90;;
6842;SDS011;3460;52.028;8.916;2024-03-02T07:07:27;23.70;;;14.37;;
6842;SDS011;3460;52.028;8.916;2024-03-02T07:09:54;23.03;;;14.67;;
6842;SDS011;3460;52.028;8.916;2024-03-02T07:12:22;24.27;;;14.70;;
6842;SDS011;3460;52.028;8.916;2024-03-02T07:14:50;25.60;;;14.77;;
6842;SDS011;3460;52.028;8.916;2024-03-02T07:17:33;21.93;;;14.57;;
6842;SDS011;3460;52.028;8.916;2024-03-02T07:19:59;23.00;;;13.93;;
6842;SDS011;3460;52.028;8.916;2024-03-02T07:22:25;22.60;;;14.10;;
6842;SDS011;3460;52.028;8.916;2024-03-02T07:24:52;23.83;;;13.70;;
6842;SDS011;3460;52.028;8.916;2024-03-02T07:27:19;22.73;;;14.23;;
6842;SDS011;3460;52.028;8.916;2024-03-02T07:29:47;23.97;;;15.27;;
6842;SDS011;3460;52.028;8.916;2024-03-02T07:32:14;24.80;;;14.77;;
6842;SDS011;3460;52.028;8.916;2024-03-02T07:34:41;25.40;;;14.40;;
6842;SDS011;3460;52.028;8.916;2024-03-02T07:37:07;27.27;;;14.63;;
6842;SDS011;3460;52.028;8.916;2024-03-02T07:39:35;22.23;;;13.70;;
6842;SDS011;3460;52.028;8.916;2024-03-02T07:42:02;27.47;;;14.10;;
6842;SDS011;3460;52.028;8.916;2024-03-02T07:44:29;25.90;;;14.40;;
6842;SDS011;3460;52.028;8.916;2024-03-02T07:46:57;25.67;;;14.83;;
6842;SDS011;3460;52.028;8.916;2024-03-02T07:49:24;24.03;;;14.10;;
6842;SDS011;3460;52.028;8.916;2024-03-02T07:51:50;23.23;;;14.00;;
6842;SDS011;3460;52.028;8.916;2024-03-02T07:54:17;23.17;;;13.90;;
6842;SDS011;3460;52.028;8.916;2024-03-02T07:56:44;22.50;;;14.77;;
6842;SDS011;3460;52.028;8.916;2024-03-02T07:59:12;19.60;;;12.80;;
6842;SDS011;3460;52.028;8.916;2024-03-02T08:01:38;24.00;;;14.20;;
6842;SDS011;3460;52.028;8.916;2024-03-02T08:04:07;22.67;;;13.53;;
6842;SDS011;3460;52.028;8.916;2024-03-02T08:06:33;21.17;;;13.37;;
6842;SDS011;3460;52.028;8.916;2024-03-02T08:09:00;24.73;;;14.70;;
6842;SDS011;3460;52.028;8.916;2024-03-02T08:11:29;21.47;;;12.97;;
6842;SDS011;3460;52.028;8.916;2024-03-02T08:13:57;23.73;;;13.70;;
6842;SDS011;3460;52.028;8.916;2024-03-02T08:16:23;20.20;;;13.13;;
6842;SDS011;3460;52.028;8.916;2024-03-02T08:18:50;22.80;;;13.43;;
6842;SDS011;3460;52.028;8.916;2024-03-02T08:21:19;21.10;;;13.50;;
6842;SDS011;3460;52.028;8.916;2024-03-02T08:23:46;18.50;;;12.80;;
6842;SDS011;3460;52.028;8.916;2024-03-02T08:26:13;23.30;;;13.40;;
6842;SDS011;3460;52.028;8.916;2024-03-02T08:28:40;23.20;;;13.90;;
6842;SDS011;3460;52.028;8.916;2024-03-02T08:31:06;21.43;;;13.30;;
6842;SDS011;3460;52.028;8.916;2024-03-02T08:33:32;20.17;;;13.17;;
6842;SDS011;3460;52.028;8.916;2024-03-02T08:35:59;19.47;;;12.17;;
6842;SDS011;3460;52.028;8.916;2024-03-02T08:38:29;18.23;;;12.63;;
6842;SDS011;3460;52.028;8.916;2024-03-02T08:40:55;20.27;;;12.93;;
6842;SDS011;3460;52.028;8.916;2024-03-02T08:43:22;20.80;;;13.60;;
6842;SDS011;3460;52.028;8.916;2024-03-02T08:45:50;19.37;;;12.53;;
6842;SDS011;3460;52.028;8.916;2024-03-02T08:48:16;19.57;;;12.23;;
6842;SDS011;3460;52.028;8.916;2024-03-02T08:50:43;18.33;;;12.63;;
6842;SDS011;3460;52.028;8.916;2024-03-02T08:53:10;21.33;;;13.13;;
6842;SDS011;3460;52.028;8.916;2024-03-02T08:55:38;19.17;;;12.70;;
6842;SDS011;3460;52.028;8.916;2024-03-02T08:58:05;18.53;;;11.93;;
6842;SDS011;3460;52.028;8.916;2024-03-02T09:00:33;17.70;;;12.47;;
6842;SDS011;3460;52.028;8.916;2024-03-02T09:03:00;17.87;;;11.53;;
6842;SDS011;3460;52.028;8.916;2024-03-02T09:05:26;16.27;;;11.33;;
6842;SDS011;3460;52.028;8.916;2024-03-02T09:07:53;18.80;;;12.23;;
6842;SDS011;3460;52.028;8.916;2024-03-02T09:10:20;18.80;;;11.83;;
6842;SDS011;3460;52.028;8.916;2024-03-02T09:12:48;17.77;;;12.23;;
6842;SDS011;3460;52.028;8.916;2024-03-02T09:15:15;16.30;;;11.47;;
6842;SDS011;3460;52.028;8.916;2024-03-02T09:17:42;16.47;;;10.83;;
6842;SDS011;3460;52.028;8.916;2024-03-02T09:20:10;19.87;;;11.93;;
6842;SDS011;3460;52.028;8.916;2024-03-02T09:22:38;15.67;;;11.30;;
6842;SDS011;3460;52.028;8.916;2024-03-02T09:25:06;15.10;;;10.67;;
6842;SDS011;3460;52.028;8.916;2024-03-02T09:27:35;14.27;;;10.53;;
6842;SDS011;3460;52.028;8.916;2024-03-02T09:30:03;14.17;;;9.90;;
6842;SDS011;3460;52.028;8.916;2024-03-02T09:32:31;16.07;;;10.50;;
6842;SDS011;3460;52.028;8.916;2024-03-02T09:34:58;15.90;;;9.70;;
6842;SDS011;3460;52.028;8.916;2024-03-02T09:37:25;14.73;;;9.47;;
6842;SDS011;3460;52.028;8.916;2024-03-02T09:39:53;18.07;;;9.20;;
6842;SDS011;3460;52.028;8.916;2024-03-02T09:42:20;16.60;;;9.83;;
6842;SDS011;3460;52.028;8.916;2024-03-02T09:44:47;13.47;;;9.37;;
6842;SDS011;3460;52.028;8.916;2024-03-02T09:47:15;14.53;;;9.47;;
6842;SDS011;3460;52.028;8.916;2024-03-02T09:49:42;13.50;;;9.07;;
6842;SDS011;3460;52.028;8.916;2024-03-02T09:52:09;14.33;;;9.17;;
6842;SDS011;3460;52.028;8.916;2024-03-02T09:54:36;12.50;;;8.77;;
6842;SDS011;3460;52.028;8.916;2024-03-02T09:57:04;13.00;;;9.23;;
6842;SDS011;3460;52.028;8.916;2024-03-02T09:59:31;12.53;;;8.90;;
6842;SDS011;3460;52.028;8.916;2024-03-02T10:02:00;19.60;;;9.37;;
6842;SDS011;3460;52.028;8.916;2024-03-02T10:04:30;13.53;;;9.50;;
6842;SDS011;3460;52.028;8.916;2024-03-02T10:09:39;14.40;;;9.60;;
6842;SDS011;3460;52.028;8.916;2024-03-02T10:12:07;13.07;;;8.80;;
6842;SDS011;3460;52.028;8.916;2024-03-02T10:14:35;15.50;;;9.87;;
6842;SDS011;3460;52.028;8.916;2024-03-02T10:17:02;14.17;;;9.57;;
6842;SDS011;3460;52.028;8.916;2024-03-02T10:19:31;12.03;;;9.23;;
6842;SDS011;3460;52.028;8.916;2024-03-02T10:21:59;11.27;;;8.00;;
6842;SDS011;3460;52.028;8.916;2024-03-02T10:24:28;41.90;;;25.73;;
6842;SDS011;3460;52.028;8.916;2024-03-02T10:27:02;14.10;;;9.90;;
6842;SDS011;3460;52.028;8.916;2024-03-02T10:29:35;13.53;;;9.33;;
6842;SDS011;3460;52.028;8.916;2024-03-02T10:32:03;14.60;;;9.37;;
6842;SDS011;3460;52.028;8.916;2024-03-02T10:34:32;12.93;;;9.10;;
6842;SDS011;3460;52.028;8.916;2024-03-02T10:37:00;12.10;;;9.07;;
6842;SDS011;3460;52.028;8.916;2024-03-02T10:39:27;16.47;;;9.93;;
6842;SDS011;3460;52.028;8.916;2024-03-02T10:41:55;13.60;;;9.10;;
6842;SDS011;3460;52.028;8.916;2024-03-02T10:44:22;15.10;;;10.00;;
6842;SDS011;3460;52.028;8.916;2024-03-02T10:46:50;14.13;;;8.83;;
6842;SDS011;3460;52.028;8.916;2024-03-02T10:49:18;12.23;;;8.80;;
6842;SDS011;3460;52.028;8.916;2024-03-02T10:51:48;14.00;;;8.70;;
6842;SDS011;3460;52.028;8.916;2024-03-02T10:54:15;12.90;;;8.47;;
6842;SDS011;3460;52.028;8.916;2024-03-02T10:56:44;12.10;;;7.97;;
6842;SDS011;3460;52.028;8.916;2024-03-02T10:59:15;11.53;;;7.93;;
6842;SDS011;3460;52.028;8.916;2024-03-02T11:01:45;11.10;;;7.83;;
6842;SDS011;3460;52.028;8.916;2024-03-02T11:04:14;11.23;;;7.53;;
6842;SDS011;3460;52.028;8.916;2024-03-02T11:06:44;11.80;;;7.50;;
6842;SDS011;3460;52.028;8.916;2024-03-02T11:09:16;9.60;;;7.47;;
6842;SDS011;3460;52.028;8.916;2024-03-02T11:11:46;12.13;;;7.83;;
6842;SDS011;3460;52.028;8.916;2024-03-02T11:14:21;9.83;;;7.07;;
6842;SDS011;3460;52.028;8.916;2024-03-02T11:16:51;11.77;;;7.50;;
6842;SDS011;3460;52.028;8.916;2024-03-02T11:19:19;9.30;;;6.60;;
6842;SDS011;3460;52.028;8.916;2024-03-02T11:21:46;10.03;;;6.70;;
6842;SDS011;3460;52.028;8.916;2024-03-02T11:24:31;8.90;;;6.50;;
6842;SDS011;3460;52.028;8.916;2024-03-02T11:27:02;9.30;;;6.53;;
6842;SDS011;3460;52.028;8.916;2024-03-02T11:29:42;10.33;;;6.70;;
6842;SDS011;3460;52.028;8.916;2024-03-02T11:32:13;10.50;;;6.77;;
6842;SDS011;3460;52.028;8.916;2024-03-02T11:34:41;10.43;;;6.13;;
6842;SDS011;3460;52.028;8.916;2024-03-02T11:37:11;9.07;;;5.97;;
6842;SDS011;3460;52.028;8.916;2024-03-02T11:39:38;10.20;;;6.97;;
6842;SDS011;3460;52.028;8.916;2024-03-02T11:42:06;9.20;;;6.60;;
6842;SDS011;3460;52.028;8.916;2024-03-02T11:44:34;9.30;;;6.63;;
6842;SDS011;3460;52.028;8.916;2024-03-02T11:47:02;9.53;;;6.10;;
6842;SDS011;3460;52.028;8.916;2024-03-02T11:49:38;41.60;;;23.87;;
6842;SDS011;3460;52.028;8.916;2024-03-02T11:52:07;9.03;;;6.40;;
6842;SDS011;3460;52.028;8.916;2024-03-02T11:54:36;8.80;;;6.53;;
6842;SDS011;3460;52.028;8.916;2024-03-02T11:57:04;7.90;;;6.10;;
6842;SDS011;3460;52.028;8.916;2024-03-02T11:59:32;10.10;;;6.33;;
6842;SDS011;3460;52.028;8.916;2024-03-02T12:01:59;8.33;;;5.90;;
6842;SDS011;3460;52.028;8.916;2024-03-02T12:04:26;8.53;;;5.83;;
6842;SDS011;3460;52.028;8.916;2024-03-02T12:06:54;8.43;;;5.87;;
6842;SDS011;3460;52.028;8.916;2024-03-02T12:09:21;7.63;;;5.87;;
6842;SDS011;3460;52.028;8.916;2024-03-02T12:11:49;8.20;;;5.67;;
6842;SDS011;3460;52.028;8.916;2024-03-02T12:14:28;7.83;;;5.53;;
6842;SDS011;3460;52.028;8.916;2024-03-02T12:16:55;6.83;;;5.23;;
6842;SDS011;3460;52.028;8.916;2024-03-02T12:19:23;7.37;;;5.40;;
6842;SDS011;3460;52.028;8.916;2024-03-02T12:21:50;7.43;;;5.43;;
6842;SDS011;3460;52.028;8.916;2024-03-02T12:24:17;8.17;;;5.63;;
6842;SDS011;3460;52.028;8.916;2024-03-02T12:26:44;9.73;;;5.80;;
6842;SDS011;3460;52.028;8.916;2024-03-02T12:29:14;7.43;;;5.33;;
6842;SDS011;3460;52.028;8.916;2024-03-02T12:31:41;7.30;;;5.47;;
6842;SDS011;3460;52.028;8.916;2024-03-02T12:34:10;8.67;;;5.10;;
6842;SDS011;3460;52.028;8.916;2024-03-02T12:36:39;6.10;;;4.43;;
6842;SDS011;3460;52.028;8.916;2024-03-02T12:39:07;6.47;;;4.57;;
6842;SDS011;3460;52.028;8.916;2024-03-02T12:41:35;5.60;;;4.20;;
6842;SDS011;3460;52.028;8.916;2024-03-02T12:44:03;5.90;;;4.70;;
6842;SDS011;3460;52.028;8.916;2024-03-02T12:46:31;6.73;;;4.50;;
6842;SDS011;3460;52.028;8.916;2024-03-02T12:48:58;6.50;;;4.50;;
6842;SDS011;3460;52.028;8.916;2024-03-02T12:51:31;5.43;;;4.27;;
6842;SDS011;3460;52.028;8.916;2024-03-02T12:53:58;5.60;;;3.87;;
6842;SDS011;3460;52.028;8.916;2024-03-02T12:56:25;6.27;;;4.67;;
6842;SDS011;3460;52.028;8.916;2024-03-02T12:58:53;6.17;;;4.47;;
6842;SDS011;3460;52.028;8.916;2024-03-02T13:01:20;5.73;;;4.27;;
6842;SDS011;3460;52.028;8.916;2024-03-02T13:03:49;6.00;;;4.57;;
6842;SDS011;3460;52.028;8.916;2024-03-02T13:06:16;6.87;;;4.30;;
6842;SDS011;3460;52.028;8.916;2024-03-02T13:08:44;4.63;;;3.77;;
6842;SDS011;3460;52.028;8.916;2024-03-02T13:11:11;4.80;;;3.83;;
6842;SDS011;3460;52.028;8.916;2024-03-02T13:13:38;6.40;;;3.80;;
6842;SDS011;3460;52.028;8.916;2024-03-02T13:16:07;5.47;;;3.97;;
6842;SDS011;3460;52.028;8.916;2024-03-02T13:18:35;5.43;;;4.13;;
6842;SDS011;3460;52.028;8.916;2024-03-02T13:21:03;4.83;;;3.70;;
6842;SDS011;3460;52.028;8.916;2024-03-02T13:23:30;5.03;;;3.70;;
6842;SDS011;3460;52.028;8.916;2024-03-02T13:25:57;5.67;;;4.23;;
6842;SDS011;3460;52.028;8.916;2024-03-02T13:28:24;6.10;;;4.63;;
6842;SDS011;3460;52.028;8.916;2024-03-02T13:30:51;5.87;;;4.50;;
6842;SDS011;3460;52.028;8.916;2024-03-02T13:33:18;6.33;;;4.10;;
6842;SDS011;3460;52.028;8.916;2024-03-02T13:35:47;6.23;;;4.17;;
6842;SDS011;3460;52.028;8.916;2024-03-02T13:38:16;6.10;;;3.90;;
6842;SDS011;3460;52.028;8.916;2024-03-02T13:40:43;4.87;;;3.80;;
6842;SDS011;3460;52.028;8.916;2024-03-02T13:43:10;4.77;;;3.40;;
6842;SDS011;3460;52.028;8.916;2024-03-02T13:45:37;4.97;;;3.70;;
6842;SDS011;3460;52.028;8.916;2024-03-02T13:48:04;4.57;;;3.57;;
6842;SDS011;3460;52.028;8.916;2024-03-02T13:50:32;4.97;;;3.33;;
6842;SDS011;3460;52.028;8.916;2024-03-02T13:52:59;4.07;;;3.27;;
6842;SDS011;3460;52.028;8.916;2024-03-02T13:55:27;3.33;;;2.57;;
6842;SDS011;3460;52.028;8.916;2024-03-02T13:57:53;2.67;;;2.20;;
6842;SDS011;3460;52.028;8.916;2024-03-02T14:00:20;2.67;;;1.97;;
6842;SDS011;3460;52.028;8.916;2024-03-02T14:02:47;2.80;;;2.13;;
6842;SDS011;3460;52.028;8.916;2024-03-02T14:05:15;2.50;;;2.00;;
6842;SDS011;3460;52.028;8.916;2024-03-02T14:07:42;3.67;;;2.23;;
6842;SDS011;3460;52.028;8.916;2024-03-02T14:10:09;3.53;;;2.00;;
6842;SDS011;3460;52.028;8.916;2024-03-02T14:12:38;3.47;;;2.03;;
6842;SDS011;3460;52.028;8.916;2024-03-02T14:15:05;3.07;;;2.00;;
6842;SDS011;3460;52.028;8.916;2024-03-02T14:17:33;2.90;;;1.97;;
6842;SDS011;3460;52.028;8.916;2024-03-02T14:20:00;8.70;;;6.20;;
6842;SDS011;3460;52.028;8.916;2024-03-02T14:22:27;2.80;;;2.17;;
6842;SDS011;3460;52.028;8.916;2024-03-02T14:24:54;4.03;;;2.30;;
6842;SDS011;3460;52.028;8.916;2024-03-02T14:27:22;3.97;;;2.50;;
6842;SDS011;3460;52.028;8.916;2024-03-02T14:29:51;3.73;;;2.53;;
6842;SDS011;3460;52.028;8.916;2024-03-02T14:32:18;6.33;;;2.27;;
6842;SDS011;3460;52.028;8.916;2024-03-02T14:34:45;3.60;;;2.60;;
6842;SDS011;3460;52.028;8.916;2024-03-02T14:37:12;2.90;;;2.60;;
6842;SDS011;3460;52.028;8.916;2024-03-02T14:39:40;3.20;;;2.60;;
6842;SDS011;3460;52.028;8.916;2024-03-02T14:42:07;3.27;;;2.50;;
6842;SDS011;3460;52.028;8.916;2024-03-02T14:44:33;4.40;;;2.63;;
6842;SDS011;3460;52.028;8.916;2024-03-02T14:47:02;2.83;;;2.20;;
6842;SDS011;3460;52.028;8.916;2024-03-02T14:49:30;2.97;;;2.07;;
6842;SDS011;3460;52.028;8.916;2024-03-02T14:51:58;3.27;;;2.63;;
6842;SDS011;3460;52.028;8.916;2024-03-02T14:54:25;3.47;;;2.60;;
6842;SDS011;3460;52.028;8.916;2024-03-02T14:56:52;2.63;;;2.23;;
6842;SDS011;3460;52.028;8.916;2024-03-02T14:59:19;3.30;;;2.53;;
6842;SDS011;3460;52.028;8.916;2024-03-02T15:01:46;2.97;;;2.13;;
6842;SDS011;3460;52.028;8.916;2024-03-02T15:04:15;3.27;;;2.23;;
6842;SDS011;3460;52.028;8.916;2024-03-02T15:06:44;2.93;;;2.10;;
6842;SDS011;3460;52.028;8.916;2024-03-02T15:09:10;3.73;;;2.60;;